This is the latest recevied weather packets stored in our database for station/object VK3HUG-13. If no packets are shown the sender has not sent any weather packets the latest 10 day(s).
| Time | Temp. | Humidity | Pressure | Rain* | Wind** | Luminosity | Snow |
|---|---|---|---|---|---|---|---|
| 1787726707 | 11.11° C | 72% | 1027.8 hPa | 0 mm | - | - | - |
| 1787725808 | 11.11° C | 72% | 1027.8 hPa | 0 mm | - | - | - |
| 1787724908 | 11.11° C | 68% | 1026.8 hPa | 0 mm | - | - | - |
| 1787724007 | 11.67° C | 65% | 1026.7 hPa | 0 mm | - | - | - |
| 1787723107 | 12.22° C | 65% | 1027.6 hPa | 0 mm | - | - | - |
| 1787722207 | 11.67° C | 66% | 1026.7 hPa | 0 mm | - | - | - |
| 1787721308 | 13.33° C | 62% | 1026.5 hPa | 0 mm | - | - | - |
| 1787719507 | 12.22° C | 62% | 1026.6 hPa | 0 mm | - | - | - |
| 1787718606 | 12.78° C | 64% | 1026.6 hPa | 0 mm | - | - | - |
| 1787717707 | 12.22° C | 63% | 1026.6 hPa | 0 mm | - | - | - |
| 1787716808 | 12.22° C | 65% | 1026.7 hPa | 0 mm | - | - | - |
| 1787715907 | 11.67° C | 66% | 1026.7 hPa | 0 mm | - | - | - |
| 1787715007 | 11.67° C | 66% | 1026.7 hPa | 0 mm | - | - | - |
| 1787714107 | 11.67° C | 65% | 1026.7 hPa | 0 mm | - | - | - |
| 1787713207 | 12.22° C | 63% | 1026.6 hPa | 0 mm | - | - | - |
| 1787712307 | 12.22° C | 66% | 1027.7 hPa | 0 mm | - | - | - |
| 1787711407 | 11.67° C | 65% | 1027.7 hPa | 0 mm | - | - | - |
| 1787710507 | 11.67° C | 65% | 1027.7 hPa | 0 mm | - | - | - |
| 1787708708 | 11.11° C | 68% | 1027.8 hPa | 0 mm | - | - | - |
| 1787707806 | 12.78° C | 66% | 1027.6 hPa | 0 mm | - | - | - |
| 1787706906 | 11.67° C | 67% | 1027.7 hPa | 0 mm | - | - | - |
| 1787706008 | 11.11° C | 71% | 1027.8 hPa | 0 mm | - | - | - |
| 1787705106 | 11.67° C | 71% | 1027.7 hPa | 0 mm | - | - | - |
| 1787704207 | 11.67° C | 73% | 1027.8 hPa | 0 mm | - | - | - |
| 1787703307 | 10° C | 77% | 1028 hPa | 0 mm | - | - | - |
* Rain latest hour (hover to see other rain measurements)
** Current wind speed in m/s (hover to see current wind gust speed)